sensor_id;sensor_type;location;lat;lon;timestamp;noise_LAeq;noise_LA_min;noise_LA_max;noise_LA01;noise_LA95
78273;Laerm;67530;52.282;5.972;2023-05-07T00:00:09;51.9;49;53;;
78273;Laerm;67530;52.282;5.972;2023-05-07T00:00:29;51.9;46.3;53;;
78273;Laerm;67530;52.282;5.972;2023-05-07T00:00:49;51.8;48.6;52.8;;
78273;Laerm;67530;52.282;5.972;2023-05-07T00:01:09;51.9;49.1;53;;
78273;Laerm;67530;52.282;5.972;2023-05-07T00:01:30;51.8;48.8;52.8;;
78273;Laerm;67530;52.282;5.972;2023-05-07T00:01:50;51.8;48.5;53;;
78273;Laerm;67530;52.282;5.972;2023-05-07T00:02:10;51.9;49.3;53;;
78273;Laerm;67530;52.282;5.972;2023-05-07T00:02:30;51.8;49.6;52.8;;
78273;Laerm;67530;52.282;5.972;2023-05-07T00:02:50;52;49.7;53.1;;
78273;Laerm;67530;52.282;5.972;2023-05-07T00:03:10;51.8;49.8;52.9;;
78273;Laerm;67530;52.282;5.972;2023-05-07T00:03:30;51.9;49.1;52.9;;
78273;Laerm;67530;52.282;5.972;2023-05-07T00:03:50;51.8;48.5;52.9;;
78273;Laerm;67530;52.282;5.972;2023-05-07T00:04:10;51.9;49.7;52.8;;
78273;Laerm;67530;52.282;5.972;2023-05-07T00:04:30;52;49.8;52.9;;
78273;Laerm;67530;52.282;5.972;2023-05-07T00:04:50;51.8;50;52.7;;
78273;Laerm;67530;52.282;5.972;2023-05-07T00:05:10;51.9;49.5;52.8;;
78273;Laerm;67530;52.282;5.972;2023-05-07T00:05:30;52;50;53;;
78273;Laerm;67530;52.282;5.972;2023-05-07T00:05:50;52.3;49.6;54;;
78273;Laerm;67530;52.282;5.972;2023-05-07T00:06:10;51.9;48.6;53.3;;
78273;Laerm;67530;52.282;5.972;2023-05-07T00:06:31;51.8;49;53.1;;
78273;Laerm;67530;52.282;5.972;2023-05-07T00:06:50;51.9;49.6;53;;
78273;Laerm;67530;52.282;5.972;2023-05-07T00:07:11;52.1;49.5;53.2;;
78273;Laerm;67530;52.282;5.972;2023-05-07T00:07:31;52.1;49.2;53.1;;
78273;Laerm;67530;52.282;5.972;2023-05-07T00:07:51;52.1;48.9;53.4;;
78273;Laerm;67530;52.282;5.972;2023-05-07T00:08:11;52;49.3;53.3;;
78273;Laerm;67530;52.282;5.972;2023-05-07T00:08:31;52.1;49.9;53.2;;
78273;Laerm;67530;52.282;5.972;2023-05-07T00:08:51;52;49.4;53.3;;
78273;Laerm;67530;52.282;5.972;2023-05-07T00:09:11;52.1;49.5;53.2;;
78273;Laerm;67530;52.282;5.972;2023-05-07T00:09:31;51.9;49.2;53.2;;
78273;Laerm;67530;52.282;5.972;2023-05-07T00:09:51;52;49;53.1;;
78273;Laerm;67530;52.282;5.972;2023-05-07T00:10:11;52.1;49.6;53;;
78273;Laerm;67530;52.282;5.972;2023-05-07T00:10:31;51.7;48.3;53.7;;
78273;Laerm;67530;52.282;5.972;2023-05-07T00:10:51;51.9;48.9;53;;
78273;Laerm;67530;52.282;5.972;2023-05-07T00:11:11;51.9;49.9;53.2;;
78273;Laerm;67530;52.282;5.972;2023-05-07T00:11:31;51.8;49.4;53;;
78273;Laerm;67530;52.282;5.972;2023-05-07T00:11:51;52;49.4;53;;
78273;Laerm;67530;52.282;5.972;2023-05-07T00:12:12;51.9;49.4;53.1;;
78273;Laerm;67530;52.282;5.972;2023-05-07T00:12:32;52;49.4;53.2;;
78273;Laerm;67530;52.282;5.972;2023-05-07T00:12:52;51.8;48.8;52.9;;
78273;Laerm;67530;52.282;5.972;2023-05-07T00:13:12;51.8;49.8;53;;
78273;Laerm;67530;52.282;5.972;2023-05-07T00:13:32;51.8;48.8;52.9;;
78273;Laerm;67530;52.282;5.972;2023-05-07T00:13:52;51.7;49.2;52.8;;
78273;Laerm;67530;52.282;5.972;2023-05-07T00:14:12;51.4;48.4;52.9;;
78273;Laerm;67530;52.282;5.972;2023-05-07T00:14:32;52.1;49.2;54.5;;
78273;Laerm;67530;52.282;5.972;2023-05-07T00:14:52;51.8;49.5;52.9;;
78273;Laerm;67530;52.282;5.972;2023-05-07T00:15:12;51.8;48.9;53;;
78273;Laerm;67530;52.282;5.972;2023-05-07T00:15:32;51.8;48.4;52.9;;
78273;Laerm;67530;52.282;5.972;2023-05-07T00:15:52;51.8;50;53.1;;
78273;Laerm;67530;52.282;5.972;2023-05-07T00:16:12;51.7;49.2;52.8;;
78273;Laerm;67530;52.282;5.972;2023-05-07T00:16:32;51.6;49.4;52.9;;
78273;Laerm;67530;52.282;5.972;2023-05-07T00:16:52;51.5;48.4;52.8;;
78273;Laerm;67530;52.282;5.972;2023-05-07T00:17:12;51.5;49.8;52.5;;
78273;Laerm;67530;52.282;5.972;2023-05-07T00:17:32;51.5;49.4;52.4;;
78273;Laerm;67530;52.282;5.972;2023-05-07T00:17:53;51.5;47.4;52.4;;
78273;Laerm;67530;52.282;5.972;2023-05-07T00:18:13;51.4;49.1;52.3;;
78273;Laerm;67530;52.282;5.972;2023-05-07T00:18:33;51.4;49.5;52.5;;
78273;Laerm;67530;52.282;5.972;2023-05-07T00:18:53;51.5;49.4;52.5;;
78273;Laerm;67530;52.282;5.972;2023-05-07T00:19:13;51.4;48.5;52.5;;
78273;Laerm;67530;52.282;5.972;2023-05-07T00:19:33;51.5;49.4;52.6;;
78273;Laerm;67530;52.282;5.972;2023-05-07T00:19:53;51.4;48.9;52.4;;
78273;Laerm;67530;52.282;5.972;2023-05-07T00:20:13;52.2;49.3;56.4;;
78273;Laerm;67530;52.282;5.972;2023-05-07T00:20:33;51.5;49.1;52.5;;
78273;Laerm;67530;52.282;5.972;2023-05-07T00:20:53;51.4;49.2;52.7;;
78273;Laerm;67530;52.282;5.972;2023-05-07T00:21:13;51.7;49.5;52.5;;
78273;Laerm;67530;52.282;5.972;2023-05-07T00:21:33;51.6;48.8;52.9;;
78273;Laerm;67530;52.282;5.972;2023-05-07T00:21:53;51.7;49.1;52.7;;
78273;Laerm;67530;52.282;5.972;2023-05-07T00:22:13;51.9;49.6;53.5;;
78273;Laerm;67530;52.282;5.972;2023-05-07T00:22:33;51.6;48.9;52.6;;
78273;Laerm;67530;52.282;5.972;2023-05-07T00:22:53;51.8;49.9;52.8;;
78273;Laerm;67530;52.282;5.972;2023-05-07T00:23:13;51.7;48.2;52.8;;
78273;Laerm;67530;52.282;5.972;2023-05-07T00:23:34;51.7;49;52.8;;
78273;Laerm;67530;52.282;5.972;2023-05-07T00:23:54;52;49.8;53.5;;
78273;Laerm;67530;52.282;5.972;2023-05-07T00:24:14;51.8;49.2;52.9;;
78273;Laerm;67530;52.282;5.972;2023-05-07T00:24:34;51.8;49.5;52.6;;
78273;Laerm;67530;52.282;5.972;2023-05-07T00:24:54;51.8;50.1;52.8;;
78273;Laerm;67530;52.282;5.972;2023-05-07T00:25:14;51.7;48.9;52.9;;
78273;Laerm;67530;52.282;5.972;2023-05-07T00:25:34;51.9;49.4;52.9;;
78273;Laerm;67530;52.282;5.972;2023-05-07T00:25:54;52;49.9;53;;
78273;Laerm;67530;52.282;5.972;2023-05-07T00:26:14;51.9;48.8;53.1;;
78273;Laerm;67530;52.282;5.972;2023-05-07T00:26:34;51.9;49.6;53.1;;
78273;Laerm;67530;52.282;5.972;2023-05-07T00:26:54;51.9;48.9;53.3;;
78273;Laerm;67530;52.282;5.972;2023-05-07T00:27:14;52.1;48.9;53.1;;
78273;Laerm;67530;52.282;5.972;2023-05-07T00:27:34;52;49.4;53.1;;
78273;Laerm;67530;52.282;5.972;2023-05-07T00:27:54;52;49.1;53.1;;
78273;Laerm;67530;52.282;5.972;2023-05-07T00:28:14;52.1;49.3;53;;
78273;Laerm;67530;52.282;5.972;2023-05-07T00:28:34;52;49.6;53.2;;
78273;Laerm;67530;52.282;5.972;2023-05-07T00:28:55;52.1;49.3;53.3;;
78273;Laerm;67530;52.282;5.972;2023-05-07T00:29:14;52;49.8;53.1;;
78273;Laerm;67530;52.282;5.972;2023-05-07T00:29:35;52;49.5;53.4;;
78273;Laerm;67530;52.282;5.972;2023-05-07T00:29:55;52.1;50.2;53;;
78273;Laerm;67530;52.282;5.972;2023-05-07T00:30:15;51.6;49.2;52.7;;
78273;Laerm;67530;52.282;5.972;2023-05-07T00:30:35;52;49.4;53.2;;
78273;Laerm;67530;52.282;5.972;2023-05-07T00:30:55;51.9;48.3;53;;
78273;Laerm;67530;52.282;5.972;2023-05-07T00:31:15;52;49.5;53;;
78273;Laerm;67530;52.282;5.972;2023-05-07T00:31:35;51.9;49.3;53.2;;
78273;Laerm;67530;52.282;5.972;2023-05-07T00:31:55;51.9;49.3;52.7;;
78273;Laerm;67530;52.282;5.972;2023-05-07T00:32:15;51.8;50.4;52.9;;
78273;Laerm;67530;52.282;5.972;2023-05-07T00:32:35;51.9;50.2;53.1;;
78273;Laerm;67530;52.282;5.972;2023-05-07T00:32:55;51.9;49;53;;
78273;Laerm;67530;52.282;5.972;2023-05-07T00:33:15;51.9;49;53.1;;
78273;Laerm;67530;52.282;5.972;2023-05-07T00:33:35;51.8;48.9;53;;
78273;Laerm;67530;52.282;5.972;2023-05-07T00:33:55;51.9;49.6;52.9;;
78273;Laerm;67530;52.282;5.972;2023-05-07T00:34:15;51.8;50;53.1;;
78273;Laerm;67530;52.282;5.972;2023-05-07T00:34:35;51.8;49.2;52.9;;
78273;Laerm;67530;52.282;5.972;2023-05-07T00:34:56;51.7;48.7;52.8;;
78273;Laerm;67530;52.282;5.972;2023-05-07T00:35:16;51.5;48.4;53.3;;
78273;Laerm;67530;52.282;5.972;2023-05-07T00:35:36;51.9;48.9;53.1;;
78273;Laerm;67530;52.282;5.972;2023-05-07T00:35:56;51.6;49.1;53.1;;
78273;Laerm;67530;52.282;5.972;2023-05-07T00:36:16;52;48.9;53.2;;
78273;Laerm;67530;52.282;5.972;2023-05-07T00:36:36;52;49;53.4;;
78273;Laerm;67530;52.282;5.972;2023-05-07T00:36:56;52;49.8;53.2;;
78273;Laerm;67530;52.282;5.972;2023-05-07T00:37:16;52;49.5;53.1;;
78273;Laerm;67530;52.282;5.972;2023-05-07T00:37:36;52;48.4;53.3;;
78273;Laerm;67530;52.282;5.972;2023-05-07T00:37:57;52;49;53.1;;
78273;Laerm;67530;52.282;5.972;2023-05-07T00:38:16;52;50;53;;
78273;Laerm;67530;52.282;5.972;2023-05-07T00:38:36;52.1;49.6;53;;
78273;Laerm;67530;52.282;5.972;2023-05-07T00:38:57;52.1;49.4;53.2;;
78273;Laerm;67530;52.282;5.972;2023-05-07T00:39:16;52.1;49.4;53.1;;
78273;Laerm;67530;52.282;5.972;2023-05-07T00:39:36;52.1;50.1;53.4;;
78273;Laerm;67530;52.282;5.972;2023-05-07T00:39:56;52.2;50.1;53.7;;
78273;Laerm;67530;52.282;5.972;2023-05-07T00:40:17;52.3;50.2;53.3;;
78273;Laerm;67530;52.282;5.972;2023-05-07T00:40:37;51.7;41.9;53.2;;
78273;Laerm;67530;52.282;5.972;2023-05-07T00:40:57;52.3;50;53.3;;
78273;Laerm;67530;52.282;5.972;2023-05-07T00:41:17;52.4;50.5;53.5;;
78273;Laerm;67530;52.282;5.972;2023-05-07T00:41:37;52.2;49.8;53.5;;
78273;Laerm;67530;52.282;5.972;2023-05-07T00:41:57;52.4;49.7;53.5;;
78273;Laerm;67530;52.282;5.972;2023-05-07T00:42:17;52.4;50.6;53.5;;
78273;Laerm;67530;52.282;5.972;2023-05-07T00:42:37;52.4;50;53.5;;
78273;Laerm;67530;52.282;5.972;2023-05-07T00:42:57;52.4;49.8;53.6;;
78273;Laerm;67530;52.282;5.972;2023-05-07T00:43:17;52.4;49.3;53.5;;
78273;Laerm;67530;52.282;5.972;2023-05-07T00:43:37;51.9;48.9;54.5;;
78273;Laerm;67530;52.282;5.972;2023-05-07T00:43:57;51.9;48.1;54.3;;
78273;Laerm;67530;52.282;5.972;2023-05-07T00:44:17;51.9;48.8;53.4;;
78273;Laerm;67530;52.282;5.972;2023-05-07T00:44:37;52.1;50;53.5;;
78273;Laerm;67530;52.282;5.972;2023-05-07T00:44:57;51.5;49;53.1;;
78273;Laerm;67530;52.282;5.972;2023-05-07T00:45:17;51.5;48.8;53.1;;
78273;Laerm;67530;52.282;5.972;2023-05-07T00:45:38;51.9;49.2;62.8;;
78273;Laerm;67530;52.282;5.972;2023-05-07T00:45:58;51.8;49.2;53.7;;
78273;Laerm;67530;52.282;5.972;2023-05-07T00:46:18;52.1;49.7;54.2;;
78273;Laerm;67530;52.282;5.972;2023-05-07T00:46:38;53.6;50.5;57.2;;
78273;Laerm;67530;52.282;5.972;2023-05-07T00:46:58;52.4;49.4;53.5;;
78273;Laerm;67530;52.282;5.972;2023-05-07T00:47:18;52.4;49.2;53.7;;
78273;Laerm;67530;52.282;5.972;2023-05-07T00:47:38;52.3;49.5;53.5;;
78273;Laerm;67530;52.282;5.972;2023-05-07T00:47:59;52.3;50.5;53.6;;
78273;Laerm;67530;52.282;5.972;2023-05-07T00:48:18;52.4;50.2;53.4;;
78273;Laerm;67530;52.282;5.972;2023-05-07T00:48:38;52.2;48.9;53.3;;
78273;Laerm;67530;52.282;5.972;2023-05-07T00:48:58;52.2;50.5;53.4;;
78273;Laerm;67530;52.282;5.972;2023-05-07T00:49:18;52.3;49.5;53.3;;
78273;Laerm;67530;52.282;5.972;2023-05-07T00:49:39;52.2;49.9;53.2;;
78273;Laerm;67530;52.282;5.972;2023-05-07T00:49:58;52.1;48.6;53.5;;
78273;Laerm;67530;52.282;5.972;2023-05-07T00:50:18;52.2;49.3;53.4;;
78273;Laerm;67530;52.282;5.972;2023-05-07T00:50:38;52.3;50.3;53.3;;
78273;Laerm;67530;52.282;5.972;2023-05-07T00:50:58;52.3;49.7;53.9;;
78273;Laerm;67530;52.282;5.972;2023-05-07T00:51:18;52.3;50.1;53.4;;
78273;Laerm;67530;52.282;5.972;2023-05-07T00:51:39;52;49.8;53.2;;
78273;Laerm;67530;52.282;5.972;2023-05-07T00:51:59;52.1;50.1;53.1;;
78273;Laerm;67530;52.282;5.972;2023-05-07T00:52:19;51.9;49.8;53;;
78273;Laerm;67530;52.282;5.972;2023-05-07T00:52:39;52.6;50.4;55.4;;
78273;Laerm;67530;52.282;5.972;2023-05-07T00:52:59;51.9;49.3;52.9;;
78273;Laerm;67530;52.282;5.972;2023-05-07T00:53:19;52;50;52.9;;
78273;Laerm;67530;52.282;5.972;2023-05-07T00:53:39;52;49.9;53;;
78273;Laerm;67530;52.282;5.972;2023-05-07T00:53:59;52;49.7;53;;
78273;Laerm;67530;52.282;5.972;2023-05-07T00:54:19;51.9;49.2;53;;
78273;Laerm;67530;52.282;5.972;2023-05-07T00:54:40;51.9;49.5;53.1;;
78273;Laerm;67530;52.282;5.972;2023-05-07T00:54:59;51.9;49.5;52.9;;
78273;Laerm;67530;52.282;5.972;2023-05-07T00:55:19;52;49.8;53.1;;
78273;Laerm;67530;52.282;5.972;2023-05-07T00:55:39;52.2;49.9;54.4;;
78273;Laerm;67530;52.282;5.972;2023-05-07T00:55:59;51.8;49;52.8;;
78273;Laerm;67530;52.282;5.972;2023-05-07T00:56:20;52;49.7;53;;
78273;Laerm;67530;52.282;5.972;2023-05-07T00:56:39;52.1;50.2;53.6;;
78273;Laerm;67530;52.282;5.972;2023-05-07T00:57:00;52;49.4;53;;
78273;Laerm;67530;52.282;5.972;2023-05-07T00:57:20;51.8;49.5;53;;
78273;Laerm;67530;52.282;5.972;2023-05-07T00:57:40;51.9;49.8;53.2;;
78273;Laerm;67530;52.282;5.972;2023-05-07T00:58:00;51.9;49.6;53.1;;
78273;Laerm;67530;52.282;5.972;2023-05-07T00:58:20;51.8;49.5;52.9;;
78273;Laerm;67530;52.282;5.972;2023-05-07T00:58:40;51.9;49.8;52.8;;
78273;Laerm;67530;52.282;5.972;2023-05-07T00:59:00;51.9;49.8;52.9;;
78273;Laerm;67530;52.282;5.972;2023-05-07T00:59:20;51.9;48.9;52.9;;
78273;Laerm;67530;52.282;5.972;2023-05-07T00:59:40;51.8;48.2;52.8;;
78273;Laerm;67530;52.282;5.972;2023-05-07T01:00:00;51.9;50.1;52.9;;
78273;Laerm;67530;52.282;5.972;2023-05-07T01:00:20;52;49.2;53;;
78273;Laerm;67530;52.282;5.972;2023-05-07T01:00:40;51.8;48.6;52.9;;
78273;Laerm;67530;52.282;5.972;2023-05-07T01:01:01;51.8;49.2;53;;
78273;Laerm;67530;52.282;5.972;2023-05-07T01:01:20;51.8;47.9;52.8;;
78273;Laerm;67530;52.282;5.972;2023-05-07T01:01:40;52;49.1;53;;
78273;Laerm;67530;52.282;5.972;2023-05-07T01:02:00;51.9;48.7;53.1;;
78273;Laerm;67530;52.282;5.972;2023-05-07T01:02:20;52;50.1;53.1;;
78273;Laerm;67530;52.282;5.972;2023-05-07T01:02:41;52;49.8;52.9;;
78273;Laerm;67530;52.282;5.972;2023-05-07T01:03:01;51.9;48.7;53.1;;
78273;Laerm;67530;52.282;5.972;2023-05-07T01:03:21;52;48.9;53.1;;
78273;Laerm;67530;52.282;5.972;2023-05-07T01:03:41;52.1;48.9;53.3;;
78273;Laerm;67530;52.282;5.972;2023-05-07T01:04:01;51.9;49.5;52.9;;
78273;Laerm;67530;52.282;5.972;2023-05-07T01:04:21;52;48.5;53.1;;
78273;Laerm;67530;52.282;5.972;2023-05-07T01:04:41;52.1;48.9;53.2;;
78273;Laerm;67530;52.282;5.972;2023-05-07T01:05:01;52;49.3;53.2;;
78273;Laerm;67530;52.282;5.972;2023-05-07T01:05:21;52;49.8;53.1;;
78273;Laerm;67530;52.282;5.972;2023-05-07T01:05:41;52;48.7;53.2;;
78273;Laerm;67530;52.282;5.972;2023-05-07T01:06:01;52.1;49.2;53.2;;
78273;Laerm;67530;52.282;5.972;2023-05-07T01:06:21;52.1;49.5;53.2;;
78273;Laerm;67530;52.282;5.972;2023-05-07T01:06:41;52.1;49.7;53.2;;
78273;Laerm;67530;52.282;5.972;2023-05-07T01:07:01;52.2;50.1;53.4;;
78273;Laerm;67530;52.282;5.972;2023-05-07T01:07:21;52.1;49.3;53.1;;
78273;Laerm;67530;52.282;5.972;2023-05-07T01:07:41;52.1;49.6;53.3;;
78273;Laerm;67530;52.282;5.972;2023-05-07T01:08:01;52.1;49.5;53.4;;
78273;Laerm;67530;52.282;5.972;2023-05-07T01:08:21;52;49.6;53.2;;
78273;Laerm;67530;52.282;5.972;2023-05-07T01:08:42;52.1;49.6;53.1;;
78273;Laerm;67530;52.282;5.972;2023-05-07T01:09:02;52;49.5;53.1;;
78273;Laerm;67530;52.282;5.972;2023-05-07T01:09:22;52;50.3;53.2;;
78273;Laerm;67530;52.282;5.972;2023-05-07T01:09:42;52.1;50.2;53.2;;
78273;Laerm;67530;52.282;5.972;2023-05-07T01:10:02;52.2;49;53.2;;
78273;Laerm;67530;52.282;5.972;2023-05-07T01:10:22;52;49.6;53.2;;
78273;Laerm;67530;52.282;5.972;2023-05-07T01:10:42;52.1;49.5;53.2;;
78273;Laerm;67530;52.282;5.972;2023-05-07T01:11:02;52.1;49.7;53.3;;
78273;Laerm;67530;52.282;5.972;2023-05-07T01:11:22;51.9;49;53;;
78273;Laerm;67530;52.282;5.972;2023-05-07T01:11:42;52.1;49.3;53.2;;
78273;Laerm;67530;52.282;5.972;2023-05-07T01:12:02;52;50.1;53.2;;
78273;Laerm;67530;52.282;5.972;2023-05-07T01:12:22;52.1;49.8;53.2;;
78273;Laerm;67530;52.282;5.972;2023-05-07T01:12:42;52.1;49.5;53.3;;
78273;Laerm;67530;52.282;5.972;2023-05-07T01:13:02;52.2;47.9;53.3;;
78273;Laerm;67530;52.282;5.972;2023-05-07T01:13:22;52.1;49.3;53.3;;
78273;Laerm;67530;52.282;5.972;2023-05-07T01:13:42;52.1;49.2;53.3;;
78273;Laerm;67530;52.282;5.972;2023-05-07T01:14:03;52.1;49.6;53.2;;
78273;Laerm;67530;52.282;5.972;2023-05-07T01:14:23;52.1;50;53.4;;
78273;Laerm;67530;52.282;5.972;2023-05-07T01:14:43;52.2;49.7;53.5;;
78273;Laerm;67530;52.282;5.972;2023-05-07T01:15:03;52.2;49.3;54.2;;
78273;Laerm;67530;52.282;5.972;2023-05-07T01:15:23;52.1;49.1;53.2;;
78273;Laerm;67530;52.282;5.972;2023-05-07T01:15:43;51.9;49.1;53.3;;
78273;Laerm;67530;52.282;5.972;2023-05-07T01:16:03;51.9;49.2;53;;
78273;Laerm;67530;52.282;5.972;2023-05-07T01:16:23;52.1;49.9;53.8;;
78273;Laerm;67530;52.282;5.972;2023-05-07T01:16:43;51.8;48.9;52.8;;
78273;Laerm;67530;52.282;5.972;2023-05-07T01:17:03;51.7;49.2;53;;
78273;Laerm;67530;52.282;5.972;2023-05-07T01:17:23;51.5;49.7;52.7;;
78273;Laerm;67530;52.282;5.972;2023-05-07T01:17:43;51.5;49.7;52.7;;
78273;Laerm;67530;52.282;5.972;2023-05-07T01:18:03;51.6;48.9;52.7;;
78273;Laerm;67530;52.282;5.972;2023-05-07T01:18:23;51.6;49.6;52.7;;
78273;Laerm;67530;52.282;5.972;2023-05-07T01:18:43;51.6;49;52.6;;
78273;Laerm;67530;52.282;5.972;2023-05-07T01:19:03;51.5;49.5;52.5;;
78273;Laerm;67530;52.282;5.972;2023-05-07T01:19:23;51.5;48.7;52.5;;
78273;Laerm;67530;52.282;5.972;2023-05-07T01:19:44;51.5;49.1;52.8;;
78273;Laerm;67530;52.282;5.972;2023-05-07T01:20:04;51.6;49.2;52.7;;
78273;Laerm;67530;52.282;5.972;2023-05-07T01:20:24;51.6;48.6;52.7;;
78273;Laerm;67530;52.282;5.972;2023-05-07T01:20:44;51.7;48.8;52.9;;
78273;Laerm;67530;52.282;5.972;2023-05-07T01:21:04;51.7;49.5;52.7;;
78273;Laerm;67530;52.282;5.972;2023-05-07T01:21:25;51.7;49.8;52.8;;
78273;Laerm;67530;52.282;5.972;2023-05-07T01:21:44;51.8;49.4;52.9;;
78273;Laerm;67530;52.282;5.972;2023-05-07T01:22:07;51.8;49.7;53;;
78273;Laerm;67530;52.282;5.972;2023-05-07T01:22:28;51.9;49;53.4;;
78273;Laerm;67530;52.282;5.972;2023-05-07T01:22:44;52;49.1;53.1;;
78273;Laerm;67530;52.282;5.972;2023-05-07T01:23:04;52;50.1;52.9;;
78273;Laerm;67530;52.282;5.972;2023-05-07T01:23:24;51.8;49.4;52.9;;
78273;Laerm;67530;52.282;5.972;2023-05-07T01:23:44;51.6;48.5;52.9;;
78273;Laerm;67530;52.282;5.972;2023-05-07T01:24:04;52;49;53;;
78273;Laerm;67530;52.282;5.972;2023-05-07T01:24:24;52.1;49.5;53.2;;
78273;Laerm;67530;52.282;5.972;2023-05-07T01:24:44;52.1;50;53.3;;
78273;Laerm;67530;52.282;5.972;2023-05-07T01:25:05;52.1;49.9;53.3;;
78273;Laerm;67530;52.282;5.972;2023-05-07T01:25:25;52;48.6;53;;
78273;Laerm;67530;52.282;5.972;2023-05-07T01:25:50;51.9;49.3;53;;
78273;Laerm;67530;52.282;5.972;2023-05-07T01:26:05;51.9;48.9;53.1;;
78273;Laerm;67530;52.282;5.972;2023-05-07T01:26:25;51.8;49.6;52.9;;
78273;Laerm;67530;52.282;5.972;2023-05-07T01:26:45;51.8;49.6;53.2;;
78273;Laerm;67530;52.282;5.972;2023-05-07T01:27:05;51.8;49;53;;
78273;Laerm;67530;52.282;5.972;2023-05-07T01:27:25;51.8;50;53;;
78273;Laerm;67530;52.282;5.972;2023-05-07T01:27:45;51.7;49.4;52.9;;
78273;Laerm;67530;52.282;5.972;2023-05-07T01:28:05;51.5;49.3;52.7;;
78273;Laerm;67530;52.282;5.972;2023-05-07T01:28:25;51.8;49.9;52.9;;
78273;Laerm;67530;52.282;5.972;2023-05-07T01:28:45;51.7;49.4;53.2;;
78273;Laerm;67530;52.282;5.972;2023-05-07T01:29:05;51.8;49.6;52.9;;
78273;Laerm;67530;52.282;5.972;2023-05-07T01:29:25;51.9;49.2;52.8;;
78273;Laerm;67530;52.282;5.972;2023-05-07T01:29:45;52;50.1;53.1;;
78273;Laerm;67530;52.282;5.972;2023-05-07T01:30:06;52;50;53.1;;
78273;Laerm;67530;52.282;5.972;2023-05-07T01:30:25;52;48.2;53;;
78273;Laerm;67530;52.282;5.972;2023-05-07T01:30:46;52;49.5;53.1;;
78273;Laerm;67530;52.282;5.972;2023-05-07T01:31:06;51.9;49.6;53.2;;
78273;Laerm;67530;52.282;5.972;2023-05-07T01:31:26;51.7;48.6;53.1;;
78273;Laerm;67530;52.282;5.972;2023-05-07T01:31:46;51.7;49.7;52.9;;
78273;Laerm;67530;52.282;5.972;2023-05-07T01:32:06;51.9;49.9;53.4;;
78273;Laerm;67530;52.282;5.972;2023-05-07T01:32:27;51.8;49.3;53;;
78273;Laerm;67530;52.282;5.972;2023-05-07T01:32:48;52;50.1;52.9;;
78273;Laerm;67530;52.282;5.972;2023-05-07T01:33:08;52;49;53.1;;
78273;Laerm;67530;52.282;5.972;2023-05-07T01:33:26;51.9;49.8;53.4;;
78273;Laerm;67530;52.282;5.972;2023-05-07T01:33:46;52;49.9;52.9;;
78273;Laerm;67530;52.282;5.972;2023-05-07T01:34:06;52.1;49.5;53.2;;
78273;Laerm;67530;52.282;5.972;2023-05-07T01:34:27;52;50.2;53.1;;
78273;Laerm;67530;52.282;5.972;2023-05-07T01:34:46;52;49.3;53.2;;
78273;Laerm;67530;52.282;5.972;2023-05-07T01:35:07;52;50;53.1;;
78273;Laerm;67530;52.282;5.972;2023-05-07T01:35:27;51.9;49.9;53;;
78273;Laerm;67530;52.282;5.972;2023-05-07T01:35:47;51.9;49.6;53.6;;
78273;Laerm;67530;52.282;5.972;2023-05-07T01:36:07;52;49.1;53.2;;
78273;Laerm;67530;52.282;5.972;2023-05-07T01:36:27;52;49.4;53.1;;
78273;Laerm;67530;52.282;5.972;2023-05-07T01:36:47;52.1;49.8;53.4;;
78273;Laerm;67530;52.282;5.972;2023-05-07T01:37:07;52.1;49.9;53.2;;
78273;Laerm;67530;52.282;5.972;2023-05-07T01:37:27;52.1;49.9;53.2;;
78273;Laerm;67530;52.282;5.972;2023-05-07T01:37:47;52;49.6;53.1;;
78273;Laerm;67530;52.282;5.972;2023-05-07T01:38:07;52;49.4;53.1;;
78273;Laerm;67530;52.282;5.972;2023-05-07T01:38:27;52;49.7;52.9;;
78273;Laerm;67530;52.282;5.972;2023-05-07T01:38:47;52;49.6;53;;
78273;Laerm;67530;52.282;5.972;2023-05-07T01:39:07;52.1;49.5;53.2;;
78273;Laerm;67530;52.282;5.972;2023-05-07T01:39:28;52;49;53.2;;
78273;Laerm;67530;52.282;5.972;2023-05-07T01:39:47;51.9;48.5;53.2;;
78273;Laerm;67530;52.282;5.972;2023-05-07T01:40:07;51.9;48.9;53;;
78273;Laerm;67530;52.282;5.972;2023-05-07T01:40:27;51.6;49;53;;
78273;Laerm;67530;52.282;5.972;2023-05-07T01:40:47;51.8;49.2;53.2;;
78273;Laerm;67530;52.282;5.972;2023-05-07T01:41:07;51.9;49.4;52.9;;
78273;Laerm;67530;52.282;5.972;2023-05-07T01:41:28;51.8;49.6;53;;
78273;Laerm;67530;52.282;5.972;2023-05-07T01:41:48;51.8;49.8;52.8;;
78273;Laerm;67530;52.282;5.972;2023-05-07T01:42:08;51.7;49.1;52.7;;
78273;Laerm;67530;52.282;5.972;2023-05-07T01:42:28;51.8;48.8;52.8;;
78273;Laerm;67530;52.282;5.972;2023-05-07T01:42:48;51.8;48.9;52.8;;
78273;Laerm;67530;52.282;5.972;2023-05-07T01:43:08;51.6;49.5;52.7;;
78273;Laerm;67530;52.282;5.972;2023-05-07T01:43:28;51.7;49.1;52.6;;
78273;Laerm;67530;52.282;5.972;2023-05-07T01:43:48;51.6;49;52.7;;
78273;Laerm;67530;52.282;5.972;2023-05-07T01:44:08;51.5;48.7;52.6;;
78273;Laerm;67530;52.282;5.972;2023-05-07T01:44:28;51.6;48.4;52.6;;
78273;Laerm;67530;52.282;5.972;2023-05-07T01:44:48;51.5;48.8;52.7;;
78273;Laerm;67530;52.282;5.972;2023-05-07T01:45:08;51.6;49.2;52.6;;
78273;Laerm;67530;52.282;5.972;2023-05-07T01:45:28;51.7;49.6;52.7;;
78273;Laerm;67530;52.282;5.972;2023-05-07T01:45:48;51.6;49.1;52.7;;
78273;Laerm;67530;52.282;5.972;2023-05-07T01:46:08;51.9;49.2;52.8;;
78273;Laerm;67530;52.282;5.972;2023-05-07T01:46:28;51.9;49.6;52.8;;
78273;Laerm;67530;52.282;5.972;2023-05-07T01:46:49;51.8;49;52.9;;
78273;Laerm;67530;52.282;5.972;2023-05-07T01:47:09;51.9;49.4;52.9;;
78273;Laerm;67530;52.282;5.972;2023-05-07T01:47:29;51.9;49.4;52.9;;
78273;Laerm;67530;52.282;5.972;2023-05-07T01:47:49;51.9;49.7;53;;
78273;Laerm;67530;52.282;5.972;2023-05-07T01:48:09;51.8;49.5;53.1;;
78273;Laerm;67530;52.282;5.972;2023-05-07T01:48:29;51.7;49.5;52.6;;
78273;Laerm;67530;52.282;5.972;2023-05-07T01:48:49;51.6;48.7;52.5;;
78273;Laerm;67530;52.282;5.972;2023-05-07T01:49:09;51.6;49.1;52.8;;
78273;Laerm;67530;52.282;5.972;2023-05-07T01:49:29;51.6;49.5;52.7;;
78273;Laerm;67530;52.282;5.972;2023-05-07T01:49:49;51.6;48.4;52.5;;
78273;Laerm;67530;52.282;5.972;2023-05-07T01:50:09;51.6;48.8;53;;
78273;Laerm;67530;52.282;5.972;2023-05-07T01:50:29;51.7;49.6;52.8;;
78273;Laerm;67530;52.282;5.972;2023-05-07T01:50:49;51.7;49.1;52.7;;
78273;Laerm;67530;52.282;5.972;2023-05-07T01:51:09;51.6;49.4;52.9;;
78273;Laerm;67530;52.282;5.972;2023-05-07T01:51:29;51.6;48.6;52.7;;
78273;Laerm;67530;52.282;5.972;2023-05-07T01:51:49;51.6;49.7;52.7;;
78273;Laerm;67530;52.282;5.972;2023-05-07T01:52:09;51.6;49.8;52.6;;
78273;Laerm;67530;52.282;5.972;2023-05-07T01:52:30;51.7;49.1;52.6;;
78273;Laerm;67530;52.282;5.972;2023-05-07T01:52:50;51.7;49;52.7;;
78273;Laerm;67530;52.282;5.972;2023-05-07T01:53:10;52.3;49.6;55.3;;
78273;Laerm;67530;52.282;5.972;2023-05-07T01:53:35;51.8;49.3;52.9;;
78273;Laerm;67530;52.282;5.972;2023-05-07T01:53:50;51.7;48.9;52.9;;
78273;Laerm;67530;52.282;5.972;2023-05-07T01:54:10;51.8;48.9;52.8;;
78273;Laerm;67530;52.282;5.972;2023-05-07T01:54:30;51.8;49.3;52.9;;
78273;Laerm;67530;52.282;5.972;2023-05-07T01:54:50;51.8;49.3;53;;
78273;Laerm;67530;52.282;5.972;2023-05-07T01:55:10;51.8;49;52.7;;
78273;Laerm;67530;52.282;5.972;2023-05-07T01:55:30;51.8;49.8;52.7;;
78273;Laerm;67530;52.282;5.972;2023-05-07T01:55:50;51.7;49.1;52.8;;
78273;Laerm;67530;52.282;5.972;2023-05-07T01:56:10;51.7;49.5;53;;
78273;Laerm;67530;52.282;5.972;2023-05-07T01:56:30;51.7;48.7;52.8;;
78273;Laerm;67530;52.282;5.972;2023-05-07T01:56:50;51.7;49.8;52.8;;
78273;Laerm;67530;52.282;5.972;2023-05-07T01:57:10;51.7;49.4;52.7;;
78273;Laerm;67530;52.282;5.972;2023-05-07T01:57:30;51.7;50.2;52.8;;
78273;Laerm;67530;52.282;5.972;2023-05-07T01:57:51;51.7;47.9;52.7;;
78273;Laerm;67530;52.282;5.972;2023-05-07T01:58:11;51.8;49.6;52.8;;
78273;Laerm;67530;52.282;5.972;2023-05-07T01:58:31;51.7;48.6;52.8;;